createdAt,value
2023-01-19T00:03:46.215Z,8.50
2023-01-19T00:18:50.928Z,9.00
2023-01-19T00:33:53.466Z,8.37
2023-01-19T00:48:55.848Z,7.77
2023-01-19T01:03:58.315Z,7.90
2023-01-19T01:19:00.820Z,6.87
2023-01-19T01:34:03.294Z,7.23
2023-01-19T01:49:13.492Z,6.27
2023-01-19T02:04:16.189Z,7.17
2023-01-19T02:19:31.047Z,6.47
2023-01-19T02:34:33.631Z,6.40
2023-01-19T02:49:36.482Z,7.23
2023-01-19T03:04:57.630Z,7.83
2023-01-19T03:20:02.279Z,7.90
2023-01-19T03:35:11.649Z,8.40
2023-01-19T03:50:23.842Z,8.43
2023-01-19T04:05:26.422Z,8.27
2023-01-19T04:20:29.592Z,7.83
2023-01-19T04:35:31.999Z,8.17
2023-01-19T04:50:34.397Z,8.33
2023-01-19T05:05:36.981Z,9.13
2023-01-19T05:20:40.067Z,9.40
2023-01-19T05:35:42.587Z,9.70
2023-01-19T05:50:44.886Z,10.77
2023-01-19T06:05:47.240Z,11.27
2023-01-19T06:20:49.643Z,12.57
2023-01-19T06:35:52.374Z,12.57
2023-01-19T06:50:55.868Z,13.97
2023-01-19T07:06:02.463Z,14.03
2023-01-19T07:21:05.913Z,13.20
2023-01-19T07:36:09.148Z,14.13
2023-01-19T07:51:18.628Z,14.43
2023-01-19T08:06:33.838Z,15.63
2023-01-19T08:21:38.272Z,17.43
2023-01-19T08:36:40.711Z,16.47
2023-01-19T08:51:46.194Z,16.33
2023-01-19T09:06:48.854Z,17.77
2023-01-19T09:21:54.371Z,15.77
2023-01-19T09:36:56.987Z,17.53
2023-01-19T09:51:59.983Z,16.00
2023-01-19T10:07:15.177Z,17.10
2023-01-19T10:22:22.221Z,15.57
2023-01-19T10:37:37.639Z,18.53
2023-01-19T10:52:41.151Z,15.17
2023-01-19T11:07:43.470Z,15.83
2023-01-19T11:22:48.843Z,17.70
2023-01-19T11:38:07.621Z,16.97
2023-01-19T11:53:24.746Z,16.17
2023-01-19T12:08:50.879Z,15.87
2023-01-19T12:24:37.438Z,18.83
2023-01-19T12:39:48.091Z,17.70
2023-01-19T12:54:54.691Z,18.57
2023-01-19T13:09:57.096Z,16.77
2023-01-19T13:25:12.654Z,15.30
2023-01-19T13:40:22.440Z,14.50
2023-01-19T13:55:26.625Z,12.80
2023-01-19T14:10:31.223Z,11.03
2023-01-19T14:25:36.393Z,10.30
2023-01-19T14:40:38.855Z,10.60
2023-01-19T14:55:59.717Z,10.90
2023-01-19T15:11:11.783Z,9.87
2023-01-19T15:26:17.972Z,9.50
2023-01-19T15:41:26.314Z,9.77
2023-01-19T15:56:30.048Z,9.03
2023-01-19T16:11:34.962Z,9.77
2023-01-19T16:26:39.476Z,7.87
2023-01-19T16:41:42.813Z,7.53
2023-01-19T16:56:45.746Z,7.27
2023-01-19T17:11:48.196Z,7.70
2023-01-19T17:26:50.582Z,8.13
2023-01-19T17:41:53.080Z,8.33
2023-01-19T17:56:56.092Z,8.57
2023-01-19T18:11:58.564Z,7.87
2023-01-19T18:27:00.939Z,7.97
2023-01-19T18:42:03.474Z,7.70
2023-01-19T18:57:05.857Z,7.93
2023-01-19T19:12:09.590Z,8.10
2023-01-19T19:27:14.145Z,10.07
2023-01-19T19:42:16.722Z,8.43
2023-01-19T19:57:19.208Z,8.40
2023-01-19T20:12:22.013Z,9.57
2023-01-19T20:27:24.491Z,9.37
2023-01-19T20:42:26.975Z,8.77
2023-01-19T20:57:29.258Z,9.20
2023-01-19T21:12:31.667Z,9.57
2023-01-19T21:27:34.025Z,10.07
2023-01-19T21:42:36.433Z,9.83
2023-01-19T21:57:38.729Z,10.30
2023-01-19T22:12:41.198Z,11.27
2023-01-19T22:27:43.671Z,10.00
2023-01-19T22:42:49.413Z,10.47
2023-01-19T22:57:51.705Z,11.17
2023-01-19T23:12:54.015Z,10.73
2023-01-19T23:27:56.444Z,11.00
2023-01-19T23:42:58.859Z,10.80
2023-01-19T23:58:01.178Z,13.17
